Wetterstation Camping Dickerscheid
Wetterdaten: aktuell Samstag, 25.05.2019 18:06
Datum Zeit Temp. Innen Temp. Auen Feuchte I. Feuchte A. Luftdruck Regen Wind W-Richtung W-Richtung Taupunkt Windchill Windben
25.05.2019 18:06 23,9 C 13,2 C 39 % 74 % 1012,8 hPa 0,0 mm 0,8 km/h (0 Bft) N-NO 24 8,7 C 13,2 C 3,2 km/h (1 Bft)
25.05.2019 17:06 23,7 C 14,1 C 38 % 71 % 1012,6 hPa 0,0 mm 4,0 km/h (1 Bft) W-NW 303 8,9 C 14,1 C 4,8 km/h (1 Bft)
25.05.2019 16:06 23,7 C 14,7 C 38 % 67 % 1012,5 hPa 0,0 mm 6,4 km/h (2 Bft) NW 304 8,6 C 14,7 C 9,7 km/h (2 Bft)
25.05.2019 15:06 23,4 C 15,2 C 37 % 68 % 1012,7 hPa 0,0 mm 8,3 km/h (2 Bft) N-NW 338 9,3 C 15,2 C 11,3 km/h (2 Bft)
25.05.2019 14:06 24,1 C 15,4 C 38 % 64 % 1012,7 hPa 0,0 mm 3,9 km/h (1 Bft) W-NW 303 8,6 C 15,4 C 9,7 km/h (2 Bft)
25.05.2019 13:06 23,6 C 15,2 C 37 % 63 % 1012,6 hPa 0,0 mm 9,7 km/h (2 Bft) W-NW 290 8,2 C 15,2 C 14,5 km/h (3 Bft)
25.05.2019 12:06 23,4 C 14,9 C 37 % 64 % 1012,6 hPa 0,0 mm 5,5 km/h (1 Bft) NO 41 8,2 C 14,9 C 14,5 km/h (3 Bft)
25.05.2019 11:06 23,7 C 14,4 C 37 % 61 % 1012,6 hPa 0,0 mm 3,8 km/h (1 Bft) N 9 7,0 C 14,4 C 6,4 km/h (2 Bft)
25.05.2019 10:06 23,6 C 12,1 C 38 % 70 % 1012,5 hPa 0,0 mm 3,4 km/h (1 Bft) N-NO 29 6,8 C 12,1 C 6,4 km/h (2 Bft)
25.05.2019 09:06 23,6 C 10,8 C 38 % 73 % 1012,3 hPa 0,0 mm 0,0 km/h (0 Bft) NW 317 6,2 C 10,8 C 0,0 km/h (0 Bft)
25.05.2019 08:06 23,4 C 8,8 C 38 % 80 % 1012,1 hPa 0,0 mm 0,0 km/h (0 Bft) NW 317 5,5 C 8,8 C 0,0 km/h (0 Bft)
25.05.2019 07:06 23,4 C 7,8 C 38 % 85 % 1011,9 hPa 0,0 mm 0,0 km/h (0 Bft) NW 317 5,4 C 7,8 C 0,0 km/h (0 Bft)
25.05.2019 06:06 23,4 C 6,8 C 38 % 84 % 1011,5 hPa 0,0 mm 0,0 km/h (0 Bft) NW 317 4,3 C 6,8 C 0,0 km/h (0 Bft)
25.05.2019 05:06 23,5 C 7,1 C 38 % 80 % 1011,2 hPa 0,0 mm 0,0 km/h (0 Bft) NW 317 3,9 C 7,1 C 0,0 km/h (0 Bft)
25.05.2019 04:06 24,0 C 8,1 C 38 % 77 % 1011,0 hPa 0,0 mm 0,0 km/h (0 Bft) NW 317 4,3 C 8,1 C 0,0 km/h (0 Bft)
25.05.2019 03:06 23,8 C 9,0 C 38 % 73 % 1011,2 hPa 0,0 mm 0,0 km/h (0 Bft) NW 317 4,4 C 9,0 C 0,0 km/h (0 Bft)
25.05.2019 02:06 23,7 C 9,5 C 39 % 76 % 1011,3 hPa 0,0 mm 0,0 km/h (0 Bft) NW 317 5,5 C 9,5 C 0,0 km/h (0 Bft)
25.05.2019 01:06 23,8 C 10,8 C 39 % 74 % 1011,5 hPa 0,0 mm 0,0 km/h (0 Bft) NW 317 6,4 C 10,8 C 0,0 km/h (0 Bft)
25.05.2019 00:06 23,8 C 11,7 C 39 % 72 % 1011,3 hPa 0,0 mm 0,0 km/h (0 Bft) NW 317 6,8 C 11,7 C 0,0 km/h (0 Bft)
24.05.2019 23:06 23,9 C 12,4 C 40 % 72 % 1011,3 hPa 0,0 mm 0,0 km/h (0 Bft) NW 317 7,5 C 12,4 C 0,0 km/h (0 Bft)
24.05.2019 22:06 24,1 C 13,3 C 40 % 68 % 1010,9 hPa 0,0 mm 0,0 km/h (0 Bft) NW 317 7,5 C 13,3 C 0,0 km/h (0 Bft)
24.05.2019 21:04 24,1 C 15,0 C 40 % 73 % 1010,3 hPa 0,0 mm 0,0 km/h (0 Bft) NW 317 10,2 C 15,0 C 0,0 km/h (0 Bft)
24.05.2019 20:01 23,9 C 16,3 C 40 % 67 % 1009,8 hPa 0,0 mm 0,3 km/h (0 Bft) NW 316 10,2 C 16,3 C 1,6 km/h (1 Bft)
24.05.2019 19:01 23,7 C 16,8 C 40 % 69 % 1009,7 hPa 0,0 mm 6,2 km/h (2 Bft) W-NW 297 11,1 C 16,8 C 9,7 km/h (2 Bft)
24.05.2019 19:00 23,7 C 16,9 C 40 % 71 % 1009,7 hPa 0,0 mm 6,3 km/h (2 Bft) NW 323 11,6 C 16,9 C 12,9 km/h (3 Bft)
_ Min-Zeit 15:11 05:49 11:14 12:25 19:38 - 19:29 - - 05:29 05:49 19:29
Minimum _ 22,8 C 6,8 C 36 % 58 % 1009,6 hPa - 0,0 km/h (0 Bft) - - 3,9 C 6,8 C 0,0 km/h (0 Bft)
_ Max-Zeit 20:49 19:00 22:27 06:24 14:17 19:00 11:02 - - 19:00 19:00 12:38
Maximum _ 24,6 C 16,9 C 41 % 86 % 1012,9 hPa 0,0 mm 12,7 km/h
W (3 Bft)
- - 11,6 C 16,9 C 22,5 km/h
W-NW (4 Bft)
Durchschnitt _ 23,7 C 12,5 C 39 % 72 % 1011,6 hPa #0,0 mm 2,4 km/h (1 Bft) NW - 7,5 C 12,5 C 4,4 km/h (1 Bft)